sensor_id;sensor_type;location;lat;lon;timestamp;temperature;humidity
12386;DHT22;6257;57.634;18.310;2022-10-20T00:01:05;7.30;99.90
12386;DHT22;6257;57.634;18.310;2022-10-20T00:03:32;7.30;99.90
12386;DHT22;6257;57.634;18.310;2022-10-20T00:06:07;7.30;99.90
12386;DHT22;6257;57.634;18.310;2022-10-20T00:08:34;7.40;99.90
12386;DHT22;6257;57.634;18.310;2022-10-20T00:11:03;7.40;99.90
12386;DHT22;6257;57.634;18.310;2022-10-20T00:13:30;7.50;99.90
12386;DHT22;6257;57.634;18.310;2022-10-20T00:15:58;7.40;99.90
12386;DHT22;6257;57.634;18.310;2022-10-20T00:18:26;7.40;99.90
12386;DHT22;6257;57.634;18.310;2022-10-20T00:20:53;7.40;99.90
12386;DHT22;6257;57.634;18.310;2022-10-20T00:23:22;7.40;99.90
12386;DHT22;6257;57.634;18.310;2022-10-20T00:25:59;7.30;99.90
12386;DHT22;6257;57.634;18.310;2022-10-20T00:30:55;7.30;99.90
12386;DHT22;6257;57.634;18.310;2022-10-20T00:33:22;7.30;99.90
12386;DHT22;6257;57.634;18.310;2022-10-20T00:35:49;7.30;99.90
12386;DHT22;6257;57.634;18.310;2022-10-20T00:38:17;7.30;99.90
12386;DHT22;6257;57.634;18.310;2022-10-20T00:40:44;7.20;99.90
12386;DHT22;6257;57.634;18.310;2022-10-20T00:43:11;7.20;99.90
12386;DHT22;6257;57.634;18.310;2022-10-20T00:45:40;7.20;99.90
12386;DHT22;6257;57.634;18.310;2022-10-20T00:48:14;7.20;99.90
12386;DHT22;6257;57.634;18.310;2022-10-20T00:50:44;7.10;99.90
12386;DHT22;6257;57.634;18.310;2022-10-20T00:53:12;7.10;99.90
12386;DHT22;6257;57.634;18.310;2022-10-20T00:55:41;7.10;99.90
12386;DHT22;6257;57.634;18.310;2022-10-20T00:58:09;7.10;99.90
12386;DHT22;6257;57.634;18.310;2022-10-20T01:00:39;7.10;99.90
12386;DHT22;6257;57.634;18.310;2022-10-20T01:03:12;7.10;99.90
12386;DHT22;6257;57.634;18.310;2022-10-20T01:05:40;7.10;99.90
12386;DHT22;6257;57.634;18.310;2022-10-20T01:08:07;7.10;99.90
12386;DHT22;6257;57.634;18.310;2022-10-20T01:10:40;7.10;99.90
12386;DHT22;6257;57.634;18.310;2022-10-20T01:13:12;7.10;99.90
12386;DHT22;6257;57.634;18.310;2022-10-20T01:15:45;7.10;99.90
12386;DHT22;6257;57.634;18.310;2022-10-20T01:18:20;7.20;99.90
12386;DHT22;6257;57.634;18.310;2022-10-20T01:24:29;7.20;99.90
12386;DHT22;6257;57.634;18.310;2022-10-20T01:27:31;7.20;99.90
12386;DHT22;6257;57.634;18.310;2022-10-20T01:30:10;7.30;99.90
12386;DHT22;6257;57.634;18.310;2022-10-20T01:32:54;7.30;99.90
12386;DHT22;6257;57.634;18.310;2022-10-20T01:35:34;7.30;99.90
12386;DHT22;6257;57.634;18.310;2022-10-20T01:38:09;7.30;99.90
12386;DHT22;6257;57.634;18.310;2022-10-20T01:40:42;7.40;99.90
12386;DHT22;6257;57.634;18.310;2022-10-20T01:43:14;7.40;99.90
12386;DHT22;6257;57.634;18.310;2022-10-20T01:45:44;7.40;99.90
12386;DHT22;6257;57.634;18.310;2022-10-20T01:48:14;7.40;99.90
12386;DHT22;6257;57.634;18.310;2022-10-20T01:50:43;7.40;99.90
12386;DHT22;6257;57.634;18.310;2022-10-20T01:53:11;7.50;99.90
12386;DHT22;6257;57.634;18.310;2022-10-20T01:55:38;7.60;99.90
12386;DHT22;6257;57.634;18.310;2022-10-20T01:58:19;7.60;99.90
12386;DHT22;6257;57.634;18.310;2022-10-20T02:00:50;7.60;99.90
12386;DHT22;6257;57.634;18.310;2022-10-20T02:03:36;7.50;99.90
12386;DHT22;6257;57.634;18.310;2022-10-20T02:06:17;7.40;99.90
12386;DHT22;6257;57.634;18.310;2022-10-20T02:08:46;7.40;99.90
12386;DHT22;6257;57.634;18.310;2022-10-20T02:11:19;7.30;99.90
12386;DHT22;6257;57.634;18.310;2022-10-20T02:13:49;7.40;99.90
12386;DHT22;6257;57.634;18.310;2022-10-20T02:16:23;7.30;99.90
12386;DHT22;6257;57.634;18.310;2022-10-20T02:18:52;7.30;99.90
12386;DHT22;6257;57.634;18.310;2022-10-20T02:21:19;7.30;99.90
12386;DHT22;6257;57.634;18.310;2022-10-20T02:23:48;7.20;99.90
12386;DHT22;6257;57.634;18.310;2022-10-20T02:26:18;7.20;99.90
12386;DHT22;6257;57.634;18.310;2022-10-20T02:28:52;7.20;99.90
12386;DHT22;6257;57.634;18.310;2022-10-20T02:31:21;7.30;99.90
12386;DHT22;6257;57.634;18.310;2022-10-20T02:33:49;7.20;99.90
12386;DHT22;6257;57.634;18.310;2022-10-20T02:36:18;7.30;99.90
12386;DHT22;6257;57.634;18.310;2022-10-20T02:38:46;7.30;99.90
12386;DHT22;6257;57.634;18.310;2022-10-20T02:41:13;7.40;99.90
12386;DHT22;6257;57.634;18.310;2022-10-20T02:43:40;7.50;99.90
12386;DHT22;6257;57.634;18.310;2022-10-20T02:46:09;7.50;99.90
12386;DHT22;6257;57.634;18.310;2022-10-20T02:48:36;7.50;99.90
12386;DHT22;6257;57.634;18.310;2022-10-20T02:51:04;7.50;99.90
12386;DHT22;6257;57.634;18.310;2022-10-20T02:53:31;7.50;99.90
12386;DHT22;6257;57.634;18.310;2022-10-20T02:55:58;7.60;99.90
12386;DHT22;6257;57.634;18.310;2022-10-20T02:58:26;7.50;99.90
12386;DHT22;6257;57.634;18.310;2022-10-20T03:00:53;7.50;99.90
12386;DHT22;6257;57.634;18.310;2022-10-20T03:03:21;7.50;99.90
12386;DHT22;6257;57.634;18.310;2022-10-20T03:05:48;7.40;99.90
12386;DHT22;6257;57.634;18.310;2022-10-20T03:08:15;7.40;99.90
12386;DHT22;6257;57.634;18.310;2022-10-20T03:10:42;7.40;99.90
12386;DHT22;6257;57.634;18.310;2022-10-20T03:13:09;7.30;99.90
12386;DHT22;6257;57.634;18.310;2022-10-20T03:15:37;7.30;99.90
12386;DHT22;6257;57.634;18.310;2022-10-20T03:18:04;7.30;99.90
12386;DHT22;6257;57.634;18.310;2022-10-20T03:20:33;7.40;99.90
12386;DHT22;6257;57.634;18.310;2022-10-20T03:23:00;7.40;99.90
12386;DHT22;6257;57.634;18.310;2022-10-20T03:25:26;7.40;99.90
12386;DHT22;6257;57.634;18.310;2022-10-20T03:27:53;7.40;99.90
12386;DHT22;6257;57.634;18.310;2022-10-20T03:30:20;7.40;99.90
12386;DHT22;6257;57.634;18.310;2022-10-20T03:32:47;7.40;99.90
12386;DHT22;6257;57.634;18.310;2022-10-20T03:35:15;7.40;99.90
12386;DHT22;6257;57.634;18.310;2022-10-20T03:37:43;7.40;99.90
12386;DHT22;6257;57.634;18.310;2022-10-20T03:40:10;7.40;99.90
12386;DHT22;6257;57.634;18.310;2022-10-20T03:42:37;7.40;99.90
12386;DHT22;6257;57.634;18.310;2022-10-20T03:45:05;7.30;99.90
12386;DHT22;6257;57.634;18.310;2022-10-20T03:47:33;7.30;99.90
12386;DHT22;6257;57.634;18.310;2022-10-20T03:50:00;7.30;99.90
12386;DHT22;6257;57.634;18.310;2022-10-20T03:52:27;7.30;99.90
12386;DHT22;6257;57.634;18.310;2022-10-20T03:54:55;7.40;99.90
12386;DHT22;6257;57.634;18.310;2022-10-20T03:57:22;7.40;99.90
12386;DHT22;6257;57.634;18.310;2022-10-20T03:59:49;7.40;99.90
12386;DHT22;6257;57.634;18.310;2022-10-20T04:02:26;7.40;99.90
12386;DHT22;6257;57.634;18.310;2022-10-20T04:04:55;7.40;99.90
12386;DHT22;6257;57.634;18.310;2022-10-20T04:07:22;7.40;99.90
12386;DHT22;6257;57.634;18.310;2022-10-20T04:09:49;7.40;99.90
12386;DHT22;6257;57.634;18.310;2022-10-20T04:12:18;7.30;99.90
12386;DHT22;6257;57.634;18.310;2022-10-20T04:14:46;7.30;99.90
12386;DHT22;6257;57.634;18.310;2022-10-20T04:17:13;7.30;99.90
12386;DHT22;6257;57.634;18.310;2022-10-20T04:19:40;7.40;99.90
12386;DHT22;6257;57.634;18.310;2022-10-20T04:22:07;7.40;99.90
12386;DHT22;6257;57.634;18.310;2022-10-20T04:24:34;7.40;99.90
12386;DHT22;6257;57.634;18.310;2022-10-20T04:27:01;7.40;99.90
12386;DHT22;6257;57.634;18.310;2022-10-20T04:29:30;7.40;99.90
12386;DHT22;6257;57.634;18.310;2022-10-20T04:31:57;7.40;99.90
12386;DHT22;6257;57.634;18.310;2022-10-20T04:34:24;7.30;99.90
12386;DHT22;6257;57.634;18.310;2022-10-20T04:36:51;7.30;99.90
12386;DHT22;6257;57.634;18.310;2022-10-20T04:39:18;7.30;99.90
12386;DHT22;6257;57.634;18.310;2022-10-20T04:41:45;7.30;99.90
12386;DHT22;6257;57.634;18.310;2022-10-20T04:44:12;7.30;99.90
12386;DHT22;6257;57.634;18.310;2022-10-20T04:46:41;7.30;99.90
12386;DHT22;6257;57.634;18.310;2022-10-20T04:49:08;7.30;99.90
12386;DHT22;6257;57.634;18.310;2022-10-20T04:51:35;7.20;99.90
12386;DHT22;6257;57.634;18.310;2022-10-20T04:54:02;7.20;99.90
12386;DHT22;6257;57.634;18.310;2022-10-20T04:56:29;7.30;99.90
12386;DHT22;6257;57.634;18.310;2022-10-20T04:58:57;7.30;99.90
12386;DHT22;6257;57.634;18.310;2022-10-20T05:01:26;7.40;99.90
12386;DHT22;6257;57.634;18.310;2022-10-20T05:03:55;7.40;99.90
12386;DHT22;6257;57.634;18.310;2022-10-20T05:06:24;7.40;99.90
12386;DHT22;6257;57.634;18.310;2022-10-20T05:08:53;7.40;99.90
12386;DHT22;6257;57.634;18.310;2022-10-20T05:11:21;7.40;99.90
12386;DHT22;6257;57.634;18.310;2022-10-20T05:13:49;7.40;99.90
12386;DHT22;6257;57.634;18.310;2022-10-20T05:16:17;7.50;99.90
12386;DHT22;6257;57.634;18.310;2022-10-20T05:18:44;7.40;99.90
12386;DHT22;6257;57.634;18.310;2022-10-20T05:21:14;7.40;99.90
12386;DHT22;6257;57.634;18.310;2022-10-20T05:23:42;7.40;99.90
12386;DHT22;6257;57.634;18.310;2022-10-20T05:26:11;7.40;99.90
12386;DHT22;6257;57.634;18.310;2022-10-20T05:28:42;7.40;99.90
12386;DHT22;6257;57.634;18.310;2022-10-20T05:31:10;7.40;99.90
12386;DHT22;6257;57.634;18.310;2022-10-20T05:33:38;7.40;99.90
12386;DHT22;6257;57.634;18.310;2022-10-20T05:36:08;7.40;99.90
12386;DHT22;6257;57.634;18.310;2022-10-20T05:38:37;7.40;99.90
12386;DHT22;6257;57.634;18.310;2022-10-20T05:41:06;7.40;99.90
12386;DHT22;6257;57.634;18.310;2022-10-20T05:43:33;7.30;99.90
12386;DHT22;6257;57.634;18.310;2022-10-20T05:46:00;7.30;99.90
12386;DHT22;6257;57.634;18.310;2022-10-20T05:48:27;7.30;99.90
12386;DHT22;6257;57.634;18.310;2022-10-20T05:50:54;7.30;99.90
12386;DHT22;6257;57.634;18.310;2022-10-20T05:53:21;7.30;99.90
12386;DHT22;6257;57.634;18.310;2022-10-20T05:55:50;7.40;99.90
12386;DHT22;6257;57.634;18.310;2022-10-20T05:58:17;7.40;99.90
12386;DHT22;6257;57.634;18.310;2022-10-20T06:00:45;7.40;99.90
12386;DHT22;6257;57.634;18.310;2022-10-20T06:03:17;7.40;99.90
12386;DHT22;6257;57.634;18.310;2022-10-20T06:05:44;7.40;99.90
12386;DHT22;6257;57.634;18.310;2022-10-20T06:08:11;7.40;99.90
12386;DHT22;6257;57.634;18.310;2022-10-20T06:10:38;7.40;99.90
12386;DHT22;6257;57.634;18.310;2022-10-20T06:13:06;7.50;99.90
12386;DHT22;6257;57.634;18.310;2022-10-20T06:15:34;7.50;99.90
12386;DHT22;6257;57.634;18.310;2022-10-20T06:18:01;7.60;99.90
12386;DHT22;6257;57.634;18.310;2022-10-20T06:20:28;7.60;99.90
12386;DHT22;6257;57.634;18.310;2022-10-20T06:22:55;7.70;99.90
12386;DHT22;6257;57.634;18.310;2022-10-20T06:25:22;7.70;99.90
12386;DHT22;6257;57.634;18.310;2022-10-20T06:27:49;7.80;99.90
12386;DHT22;6257;57.634;18.310;2022-10-20T06:30:17;7.80;99.90
12386;DHT22;6257;57.634;18.310;2022-10-20T06:32:45;7.80;99.90
12386;DHT22;6257;57.634;18.310;2022-10-20T06:35:12;7.90;99.90
12386;DHT22;6257;57.634;18.310;2022-10-20T06:37:39;7.90;99.90
12386;DHT22;6257;57.634;18.310;2022-10-20T06:40:06;7.90;99.90
12386;DHT22;6257;57.634;18.310;2022-10-20T06:42:33;7.90;99.90
12386;DHT22;6257;57.634;18.310;2022-10-20T06:45:00;7.90;99.90
12386;DHT22;6257;57.634;18.310;2022-10-20T06:47:30;8.00;99.90
12386;DHT22;6257;57.634;18.310;2022-10-20T06:49:57;8.00;99.90
12386;DHT22;6257;57.634;18.310;2022-10-20T06:52:24;8.00;99.90
12386;DHT22;6257;57.634;18.310;2022-10-20T06:54:51;8.00;99.90
12386;DHT22;6257;57.634;18.310;2022-10-20T06:57:18;8.00;99.90
12386;DHT22;6257;57.634;18.310;2022-10-20T06:59:46;8.00;99.90
12386;DHT22;6257;57.634;18.310;2022-10-20T07:02:13;8.10;99.90
12386;DHT22;6257;57.634;18.310;2022-10-20T07:04:43;8.10;99.90
12386;DHT22;6257;57.634;18.310;2022-10-20T07:07:10;8.10;99.90
12386;DHT22;6257;57.634;18.310;2022-10-20T07:09:37;8.20;99.90
12386;DHT22;6257;57.634;18.310;2022-10-20T07:12:04;8.20;99.90
12386;DHT22;6257;57.634;18.310;2022-10-20T07:14:31;8.20;99.90
12386;DHT22;6257;57.634;18.310;2022-10-20T07:17:01;8.20;99.90
12386;DHT22;6257;57.634;18.310;2022-10-20T07:19:28;8.20;99.90
12386;DHT22;6257;57.634;18.310;2022-10-20T07:21:57;8.20;99.90
12386;DHT22;6257;57.634;18.310;2022-10-20T07:24:24;8.10;99.90
12386;DHT22;6257;57.634;18.310;2022-10-20T07:26:51;8.20;99.90
12386;DHT22;6257;57.634;18.310;2022-10-20T07:29:18;8.20;99.90
12386;DHT22;6257;57.634;18.310;2022-10-20T07:31:46;8.20;99.90
12386;DHT22;6257;57.634;18.310;2022-10-20T07:34:15;8.30;99.90
12386;DHT22;6257;57.634;18.310;2022-10-20T07:36:43;8.30;99.90
12386;DHT22;6257;57.634;18.310;2022-10-20T07:39:12;8.30;99.90
12386;DHT22;6257;57.634;18.310;2022-10-20T07:41:39;8.40;99.90
12386;DHT22;6257;57.634;18.310;2022-10-20T07:44:08;8.50;99.90
12386;DHT22;6257;57.634;18.310;2022-10-20T07:46:35;8.60;99.90
12386;DHT22;6257;57.634;18.310;2022-10-20T07:49:02;8.70;99.90
12386;DHT22;6257;57.634;18.310;2022-10-20T07:54:00;8.90;99.90
12386;DHT22;6257;57.634;18.310;2022-10-20T07:56:32;9.00;99.90
12386;DHT22;6257;57.634;18.310;2022-10-20T07:59:00;9.10;99.90
12386;DHT22;6257;57.634;18.310;2022-10-20T08:01:27;9.00;99.90
12386;DHT22;6257;57.634;18.310;2022-10-20T08:03:54;8.80;99.90
12386;DHT22;6257;57.634;18.310;2022-10-20T08:06:22;8.80;99.90
12386;DHT22;6257;57.634;18.310;2022-10-20T08:08:49;8.80;99.90
12386;DHT22;6257;57.634;18.310;2022-10-20T08:11:16;8.90;99.90
12386;DHT22;6257;57.634;18.310;2022-10-20T08:13:45;8.90;99.90
12386;DHT22;6257;57.634;18.310;2022-10-20T08:16:13;8.90;99.90
12386;DHT22;6257;57.634;18.310;2022-10-20T08:18:40;9.00;99.90
12386;DHT22;6257;57.634;18.310;2022-10-20T08:21:09;9.00;99.90
12386;DHT22;6257;57.634;18.310;2022-10-20T08:23:38;9.00;99.90
12386;DHT22;6257;57.634;18.310;2022-10-20T08:26:05;9.00;99.90
12386;DHT22;6257;57.634;18.310;2022-10-20T08:28:32;9.00;99.90
12386;DHT22;6257;57.634;18.310;2022-10-20T08:31:02;9.10;99.90
12386;DHT22;6257;57.634;18.310;2022-10-20T08:33:30;9.10;99.90
12386;DHT22;6257;57.634;18.310;2022-10-20T08:36:00;9.00;99.90
12386;DHT22;6257;57.634;18.310;2022-10-20T08:38:28;9.00;99.90
12386;DHT22;6257;57.634;18.310;2022-10-20T08:40:55;9.00;99.90
12386;DHT22;6257;57.634;18.310;2022-10-20T08:43:24;9.10;99.90
12386;DHT22;6257;57.634;18.310;2022-10-20T08:45:52;9.10;99.90
12386;DHT22;6257;57.634;18.310;2022-10-20T08:48:23;9.10;99.90
12386;DHT22;6257;57.634;18.310;2022-10-20T08:50:52;9.10;99.90
12386;DHT22;6257;57.634;18.310;2022-10-20T08:53:21;9.00;99.90
12386;DHT22;6257;57.634;18.310;2022-10-20T08:55:50;9.00;99.90
12386;DHT22;6257;57.634;18.310;2022-10-20T08:58:20;9.10;99.90
12386;DHT22;6257;57.634;18.310;2022-10-20T09:00:57;9.10;99.90
12386;DHT22;6257;57.634;18.310;2022-10-20T09:03:29;9.20;99.90
12386;DHT22;6257;57.634;18.310;2022-10-20T09:06:01;9.30;99.90
12386;DHT22;6257;57.634;18.310;2022-10-20T09:08:34;9.50;99.90
12386;DHT22;6257;57.634;18.310;2022-10-20T09:11:03;9.40;99.90
12386;DHT22;6257;57.634;18.310;2022-10-20T09:13:35;9.40;99.90
12386;DHT22;6257;57.634;18.310;2022-10-20T09:16:04;9.40;99.90
12386;DHT22;6257;57.634;18.310;2022-10-20T09:18:34;9.30;99.90
12386;DHT22;6257;57.634;18.310;2022-10-20T09:21:04;9.40;99.90
12386;DHT22;6257;57.634;18.310;2022-10-20T09:23:36;9.40;99.90
12386;DHT22;6257;57.634;18.310;2022-10-20T09:26:04;9.30;99.90
12386;DHT22;6257;57.634;18.310;2022-10-20T09:28:35;9.30;99.90
12386;DHT22;6257;57.634;18.310;2022-10-20T09:31:03;9.40;99.90
12386;DHT22;6257;57.634;18.310;2022-10-20T09:33:47;9.40;99.90
12386;DHT22;6257;57.634;18.310;2022-10-20T09:36:16;9.40;99.90
12386;DHT22;6257;57.634;18.310;2022-10-20T09:38:48;9.30;99.90
12386;DHT22;6257;57.634;18.310;2022-10-20T09:41:18;9.30;99.90
12386;DHT22;6257;57.634;18.310;2022-10-20T09:43:50;9.40;99.90
12386;DHT22;6257;57.634;18.310;2022-10-20T09:46:21;9.30;99.90
12386;DHT22;6257;57.634;18.310;2022-10-20T09:48:50;9.40;99.90
12386;DHT22;6257;57.634;18.310;2022-10-20T09:51:20;9.40;99.90
12386;DHT22;6257;57.634;18.310;2022-10-20T09:53:51;9.50;99.90
12386;DHT22;6257;57.634;18.310;2022-10-20T09:56:23;9.60;99.90
12386;DHT22;6257;57.634;18.310;2022-10-20T09:58:51;9.50;99.90
12386;DHT22;6257;57.634;18.310;2022-10-20T10:01:19;8.70;99.90
12386;DHT22;6257;57.634;18.310;2022-10-20T10:03:46;9.60;99.90
12386;DHT22;6257;57.634;18.310;2022-10-20T10:06:28;9.60;99.90
12386;DHT22;6257;57.634;18.310;2022-10-20T10:08:57;9.60;99.90
12386;DHT22;6257;57.634;18.310;2022-10-20T10:11:28;9.60;99.90
12386;DHT22;6257;57.634;18.310;2022-10-20T10:13:57;9.60;99.90
12386;DHT22;6257;57.634;18.310;2022-10-20T10:16:24;9.70;99.90
12386;DHT22;6257;57.634;18.310;2022-10-20T10:18:56;9.70;99.90
12386;DHT22;6257;57.634;18.310;2022-10-20T10:21:28;9.80;99.90
12386;DHT22;6257;57.634;18.310;2022-10-20T10:23:57;9.80;99.90
12386;DHT22;6257;57.634;18.310;2022-10-20T10:26:44;9.70;99.90
12386;DHT22;6257;57.634;18.310;2022-10-20T10:29:22;9.70;99.90
12386;DHT22;6257;57.634;18.310;2022-10-20T10:31:52;9.50;99.90
12386;DHT22;6257;57.634;18.310;2022-10-20T10:35:00;9.50;99.90
12386;DHT22;6257;57.634;18.310;2022-10-20T10:37:30;9.00;99.90
12386;DHT22;6257;57.634;18.310;2022-10-20T10:39:57;9.60;99.90
12386;DHT22;6257;57.634;18.310;2022-10-20T10:45:18;9.70;99.90
12386;DHT22;6257;57.634;18.310;2022-10-20T10:48:34;9.60;99.90
12386;DHT22;6257;57.634;18.310;2022-10-20T10:51:07;9.50;99.90
12386;DHT22;6257;57.634;18.310;2022-10-20T10:53:49;9.50;99.90
12386;DHT22;6257;57.634;18.310;2022-10-20T10:56:29;9.70;99.90
12386;DHT22;6257;57.634;18.310;2022-10-20T10:59:04;9.80;99.90
12386;DHT22;6257;57.634;18.310;2022-10-20T11:01:57;9.80;99.90
12386;DHT22;6257;57.634;18.310;2022-10-20T11:07:35;9.70;99.90
12386;DHT22;6257;57.634;18.310;2022-10-20T11:10:08;9.50;99.90
12386;DHT22;6257;57.634;18.310;2022-10-20T11:12:58;9.50;99.90
12386;DHT22;6257;57.634;18.310;2022-10-20T11:15:38;9.40;99.90
12386;DHT22;6257;57.634;18.310;2022-10-20T11:18:15;9.40;99.90
12386;DHT22;6257;57.634;18.310;2022-10-20T11:20:53;9.50;99.90
12386;DHT22;6257;57.634;18.310;2022-10-20T11:26:37;9.40;99.90
12386;DHT22;6257;57.634;18.310;2022-10-20T11:29:09;9.40;99.90
12386;DHT22;6257;57.634;18.310;2022-10-20T11:31:41;9.30;99.90
12386;DHT22;6257;57.634;18.310;2022-10-20T11:34:15;9.50;99.90
12386;DHT22;6257;57.634;18.310;2022-10-20T11:36:46;9.50;99.90
12386;DHT22;6257;57.634;18.310;2022-10-20T11:39:21;9.50;99.90
12386;DHT22;6257;57.634;18.310;2022-10-20T11:41:53;9.50;99.90
12386;DHT22;6257;57.634;18.310;2022-10-20T11:44:26;9.60;99.90
12386;DHT22;6257;57.634;18.310;2022-10-20T11:46:58;9.60;99.90
12386;DHT22;6257;57.634;18.310;2022-10-20T11:49:27;9.70;99.90
12386;DHT22;6257;57.634;18.310;2022-10-20T11:52:16;9.60;99.90
12386;DHT22;6257;57.634;18.310;2022-10-20T11:55:10;9.60;99.90
12386;DHT22;6257;57.634;18.310;2022-10-20T11:57:53;9.70;99.90
12386;DHT22;6257;57.634;18.310;2022-10-20T12:00:41;9.60;99.90
12386;DHT22;6257;57.634;18.310;2022-10-20T12:03:36;9.50;99.90
12386;DHT22;6257;57.634;18.310;2022-10-20T12:06:38;9.60;99.90
12386;DHT22;6257;57.634;18.310;2022-10-20T12:12:32;9.70;99.90
12386;DHT22;6257;57.634;18.310;2022-10-20T12:15:18;9.70;99.90
12386;DHT22;6257;57.634;18.310;2022-10-20T12:17:47;9.80;99.90
12386;DHT22;6257;57.634;18.310;2022-10-20T12:20:46;9.80;99.90
12386;DHT22;6257;57.634;18.310;2022-10-20T12:29:58;9.90;99.90
12386;DHT22;6257;57.634;18.310;2022-10-20T12:32:57;9.80;99.90
12386;DHT22;6257;57.634;18.310;2022-10-20T12:38:29;9.70;99.90
12386;DHT22;6257;57.634;18.310;2022-10-20T12:40:58;9.70;99.90
12386;DHT22;6257;57.634;18.310;2022-10-20T12:43:33;9.70;99.90
12386;DHT22;6257;57.634;18.310;2022-10-20T12:46:08;9.80;99.90
12386;DHT22;6257;57.634;18.310;2022-10-20T12:48:41;9.70;99.90
12386;DHT22;6257;57.634;18.310;2022-10-20T12:51:19;9.70;99.90
12386;DHT22;6257;57.634;18.310;2022-10-20T12:53:54;9.70;99.90
12386;DHT22;6257;57.634;18.310;2022-10-20T12:56:22;9.60;99.90
12386;DHT22;6257;57.634;18.310;2022-10-20T12:59:19;9.60;99.90
12386;DHT22;6257;57.634;18.310;2022-10-20T13:04:55;9.80;99.90
12386;DHT22;6257;57.634;18.310;2022-10-20T13:10:31;9.70;99.90
12386;DHT22;6257;57.634;18.310;2022-10-20T13:16:03;9.90;99.90
12386;DHT22;6257;57.634;18.310;2022-10-20T13:18:43;9.90;99.90
12386;DHT22;6257;57.634;18.310;2022-10-20T13:21:22;10.00;99.90
12386;DHT22;6257;57.634;18.310;2022-10-20T13:23:59;10.00;99.90
12386;DHT22;6257;57.634;18.310;2022-10-20T13:26:30;10.00;99.90
12386;DHT22;6257;57.634;18.310;2022-10-20T13:28:59;9.90;99.90
12386;DHT22;6257;57.634;18.310;2022-10-20T13:31:30;10.00;99.90
12386;DHT22;6257;57.634;18.310;2022-10-20T13:34:03;10.10;99.90
12386;DHT22;6257;57.634;18.310;2022-10-20T13:36:58;10.00;99.90
12386;DHT22;6257;57.634;18.310;2022-10-20T13:39:36;9.90;99.90
12386;DHT22;6257;57.634;18.310;2022-10-20T13:42:16;9.90;99.90
12386;DHT22;6257;57.634;18.310;2022-10-20T13:44:55;9.90;99.90
12386;DHT22;6257;57.634;18.310;2022-10-20T13:47:42;9.90;99.90
12386;DHT22;6257;57.634;18.310;2022-10-20T13:50:12;9.90;99.90
12386;DHT22;6257;57.634;18.310;2022-10-20T13:52:44;9.80;99.90
12386;DHT22;6257;57.634;18.310;2022-10-20T13:55:17;9.70;99.90
12386;DHT22;6257;57.634;18.310;2022-10-20T13:57:50;9.70;99.90
12386;DHT22;6257;57.634;18.310;2022-10-20T14:00:19;9.70;99.90
12386;DHT22;6257;57.634;18.310;2022-10-20T14:02:55;9.70;99.90
12386;DHT22;6257;57.634;18.310;2022-10-20T14:05:23;9.70;99.90
12386;DHT22;6257;57.634;18.310;2022-10-20T14:07:52;9.70;99.90
12386;DHT22;6257;57.634;18.310;2022-10-20T14:10:25;9.60;99.90
12386;DHT22;6257;57.634;18.310;2022-10-20T14:12:53;9.60;99.90
12386;DHT22;6257;57.634;18.310;2022-10-20T14:15:27;9.50;99.90
12386;DHT22;6257;57.634;18.310;2022-10-20T14:17:57;9.40;99.90
12386;DHT22;6257;57.634;18.310;2022-10-20T14:20:25;9.30;99.90
12386;DHT22;6257;57.634;18.310;2022-10-20T14:22:54;9.20;99.90
12386;DHT22;6257;57.634;18.310;2022-10-20T14:25:23;9.20;99.90
12386;DHT22;6257;57.634;18.310;2022-10-20T14:27:50;9.10;99.90
12386;DHT22;6257;57.634;18.310;2022-10-20T14:30:19;9.10;99.90
12386;DHT22;6257;57.634;18.310;2022-10-20T14:32:47;9.00;99.90
12386;DHT22;6257;57.634;18.310;2022-10-20T14:35:24;9.10;99.90
12386;DHT22;6257;57.634;18.310;2022-10-20T14:37:58;9.10;99.90
12386;DHT22;6257;57.634;18.310;2022-10-20T14:40:28;9.10;99.90
12386;DHT22;6257;57.634;18.310;2022-10-20T14:42:58;9.20;99.90
12386;DHT22;6257;57.634;18.310;2022-10-20T14:45:27;9.20;99.90
12386;DHT22;6257;57.634;18.310;2022-10-20T14:47:55;9.20;99.90
12386;DHT22;6257;57.634;18.310;2022-10-20T14:50:26;9.30;99.90
12386;DHT22;6257;57.634;18.310;2022-10-20T14:52:53;9.30;99.90
12386;DHT22;6257;57.634;18.310;2022-10-20T14:55:30;9.30;99.90
12386;DHT22;6257;57.634;18.310;2022-10-20T14:57:58;9.20;99.90
12386;DHT22;6257;57.634;18.310;2022-10-20T15:00:31;9.10;99.90
12386;DHT22;6257;57.634;18.310;2022-10-20T15:02:59;9.20;99.90
12386;DHT22;6257;57.634;18.310;2022-10-20T15:05:37;9.10;99.90
12386;DHT22;6257;57.634;18.310;2022-10-20T15:08:19;9.20;99.90
12386;DHT22;6257;57.634;18.310;2022-10-20T15:10:51;9.20;99.90
12386;DHT22;6257;57.634;18.310;2022-10-20T15:13:24;9.20;99.90
12386;DHT22;6257;57.634;18.310;2022-10-20T15:15:52;9.20;99.90
12386;DHT22;6257;57.634;18.310;2022-10-20T15:18:20;9.30;99.90
12386;DHT22;6257;57.634;18.310;2022-10-20T15:20:49;9.30;99.90
12386;DHT22;6257;57.634;18.310;2022-10-20T15:23:17;9.30;99.90
12386;DHT22;6257;57.634;18.310;2022-10-20T15:25:52;9.10;99.90
12386;DHT22;6257;57.634;18.310;2022-10-20T15:28:24;9.00;99.90
12386;DHT22;6257;57.634;18.310;2022-10-20T15:30:53;9.00;99.90
12386;DHT22;6257;57.634;18.310;2022-10-20T15:33:20;9.10;99.90
12386;DHT22;6257;57.634;18.310;2022-10-20T15:35:47;9.20;99.90
12386;DHT22;6257;57.634;18.310;2022-10-20T15:38:15;9.20;99.90
12386;DHT22;6257;57.634;18.310;2022-10-20T15:40:42;9.20;99.90
12386;DHT22;6257;57.634;18.310;2022-10-20T15:43:13;9.20;99.90
12386;DHT22;6257;57.634;18.310;2022-10-20T15:45:42;9.20;99.90
12386;DHT22;6257;57.634;18.310;2022-10-20T15:48:10;9.20;99.90
12386;DHT22;6257;57.634;18.310;2022-10-20T15:50:38;9.20;99.90
12386;DHT22;6257;57.634;18.310;2022-10-20T15:53:05;9.10;99.90
12386;DHT22;6257;57.634;18.310;2022-10-20T15:55:34;9.10;99.90
12386;DHT22;6257;57.634;18.310;2022-10-20T15:58:02;9.20;99.90
12386;DHT22;6257;57.634;18.310;2022-10-20T16:00:30;9.20;99.90
12386;DHT22;6257;57.634;18.310;2022-10-20T16:02:57;9.10;99.90
12386;DHT22;6257;57.634;18.310;2022-10-20T16:05:25;9.10;99.90
12386;DHT22;6257;57.634;18.310;2022-10-20T16:07:54;9.00;99.90
12386;DHT22;6257;57.634;18.310;2022-10-20T16:10:21;9.00;99.90
12386;DHT22;6257;57.634;18.310;2022-10-20T16:12:49;8.90;99.90
12386;DHT22;6257;57.634;18.310;2022-10-20T16:15:16;8.70;99.90
12386;DHT22;6257;57.634;18.310;2022-10-20T16:17:45;8.60;99.90
12386;DHT22;6257;57.634;18.310;2022-10-20T16:20:13;8.50;99.90
12386;DHT22;6257;57.634;18.310;2022-10-20T16:22:40;8.40;99.90
12386;DHT22;6257;57.634;18.310;2022-10-20T16:25:08;8.30;99.90
12386;DHT22;6257;57.634;18.310;2022-10-20T16:27:35;8.20;99.90
12386;DHT22;6257;57.634;18.310;2022-10-20T16:30:04;8.10;99.90
12386;DHT22;6257;57.634;18.310;2022-10-20T16:32:31;8.00;99.90
12386;DHT22;6257;57.634;18.310;2022-10-20T16:35:00;7.90;99.90
12386;DHT22;6257;57.634;18.310;2022-10-20T16:37:27;7.80;99.90
12386;DHT22;6257;57.634;18.310;2022-10-20T16:39:55;8.90;99.90
12386;DHT22;6257;57.634;18.310;2022-10-20T16:42:22;7.70;99.90
12386;DHT22;6257;57.634;18.310;2022-10-20T16:44:49;7.60;99.90
12386;DHT22;6257;57.634;18.310;2022-10-20T16:47:16;7.40;99.90